sensor_id;sensor_type;location;lat;lon;timestamp;pressure;altitude;pressure_sealevel;temperature;humidity
9969;BME280;5025;48.890;9.278;2023-03-21T00:00:22;99028.06;;;10.89;65.70
9969;BME280;5025;48.890;9.278;2023-03-21T00:02:48;99030.16;;;10.87;65.85
9969;BME280;5025;48.890;9.278;2023-03-21T00:05:13;99026.66;;;10.86;65.90
9969;BME280;5025;48.890;9.278;2023-03-21T00:07:38;99020.63;;;10.84;66.30
9969;BME280;5025;48.890;9.278;2023-03-21T00:10:04;99023.56;;;10.83;66.11
9969;BME280;5025;48.890;9.278;2023-03-21T00:12:30;99027.09;;;10.83;66.29
9969;BME280;5025;48.890;9.278;2023-03-21T00:14:57;99027.31;;;10.82;66.52
9969;BME280;5025;48.890;9.278;2023-03-21T00:17:29;99017.56;;;10.81;66.51
9969;BME280;5025;48.890;9.278;2023-03-21T00:19:57;99027.78;;;10.79;66.54
9969;BME280;5025;48.890;9.278;2023-03-21T00:22:22;99024.44;;;10.76;66.67
9969;BME280;5025;48.890;9.278;2023-03-21T00:24:47;99022.81;;;10.75;66.74
9969;BME280;5025;48.890;9.278;2023-03-21T00:27:13;99023.47;;;10.71;66.93
9969;BME280;5025;48.890;9.278;2023-03-21T00:29:38;99012.28;;;10.67;66.97
9969;BME280;5025;48.890;9.278;2023-03-21T00:32:04;99008.75;;;10.67;67.27
9969;BME280;5025;48.890;9.278;2023-03-21T00:34:29;99007.94;;;10.66;67.32
9969;BME280;5025;48.890;9.278;2023-03-21T00:36:54;99012.28;;;10.67;67.59
9969;BME280;5025;48.890;9.278;2023-03-21T00:39:20;99006.50;;;10.64;67.86
9969;BME280;5025;48.890;9.278;2023-03-21T00:41:46;99000.06;;;10.65;67.99
9969;BME280;5025;48.890;9.278;2023-03-21T00:44:12;98997.38;;;10.65;68.03
9969;BME280;5025;48.890;9.278;2023-03-21T00:46:39;98994.06;;;10.63;68.26
9969;BME280;5025;48.890;9.278;2023-03-21T00:49:05;98991.34;;;10.63;68.40
9969;BME280;5025;48.890;9.278;2023-03-21T00:51:30;98989.72;;;10.62;68.62
9969;BME280;5025;48.890;9.278;2023-03-21T00:53:57;98983.47;;;10.61;68.60
9969;BME280;5025;48.890;9.278;2023-03-21T00:56:22;98983.47;;;10.61;68.73
9969;BME280;5025;48.890;9.278;2023-03-21T00:58:47;98986.16;;;10.61;68.89
9969;BME280;5025;48.890;9.278;2023-03-21T01:01:13;98984.75;;;10.58;69.00
9969;BME280;5025;48.890;9.278;2023-03-21T01:03:39;98983.09;;;10.57;69.13
9969;BME280;5025;48.890;9.278;2023-03-21T01:06:12;98987.69;;;10.57;69.16
9969;BME280;5025;48.890;9.278;2023-03-21T01:08:40;98985.44;;;10.54;69.31
9969;BME280;5025;48.890;9.278;2023-03-21T01:11:15;98988.13;;;10.54;69.48
9969;BME280;5025;48.890;9.278;2023-03-21T01:13:41;98987.53;;;10.52;69.70
9969;BME280;5025;48.890;9.278;2023-03-21T01:16:08;98977.78;;;10.51;69.76
9969;BME280;5025;48.890;9.278;2023-03-21T01:18:37;98976.34;;;10.48;69.79
9969;BME280;5025;48.890;9.278;2023-03-21T01:21:12;98983.84;;;10.46;70.04
9969;BME280;5025;48.890;9.278;2023-03-21T01:23:39;98976.56;;;10.47;70.05
9969;BME280;5025;48.890;9.278;2023-03-21T01:26:05;98973.06;;;10.46;70.15
9969;BME280;5025;48.890;9.278;2023-03-21T01:28:31;98973.28;;;10.45;70.17
9969;BME280;5025;48.890;9.278;2023-03-21T01:31:00;98973.28;;;10.45;70.39
9969;BME280;5025;48.890;9.278;2023-03-21T01:33:26;98971.84;;;10.42;70.37
9969;BME280;5025;48.890;9.278;2023-03-21T01:35:52;98967.72;;;10.39;70.57
9969;BME280;5025;48.890;9.278;2023-03-21T01:38:18;98960.66;;;10.38;70.61
9969;BME280;5025;48.890;9.278;2023-03-21T01:40:45;98965.84;;;10.40;70.88
9969;BME280;5025;48.890;9.278;2023-03-21T01:43:23;98965.84;;;10.40;70.82
9969;BME280;5025;48.890;9.278;2023-03-21T01:48:49;98954.06;;;10.34;70.99
9969;BME280;5025;48.890;9.278;2023-03-21T01:51:16;98953.25;;;10.34;71.18
9969;BME280;5025;48.890;9.278;2023-03-21T01:53:42;98954.47;;;10.31;71.09
9969;BME280;5025;48.890;9.278;2023-03-21T01:56:13;98952.63;;;10.32;71.37
9969;BME280;5025;48.890;9.278;2023-03-21T01:58:43;98954.69;;;10.30;71.52
9969;BME280;5025;48.890;9.278;2023-03-21T02:01:08;98949.72;;;10.27;71.39
9969;BME280;5025;48.890;9.278;2023-03-21T02:03:34;98953.72;;;10.24;71.83
9969;BME280;5025;48.890;9.278;2023-03-21T02:06:08;98948.09;;;10.26;71.84
9969;BME280;5025;48.890;9.278;2023-03-21T02:08:35;98950.19;;;10.23;72.13
9969;BME280;5025;48.890;9.278;2023-03-21T02:11:00;98941.03;;;10.25;72.13
9969;BME280;5025;48.890;9.278;2023-03-21T02:13:27;98943.16;;;10.22;71.87
9969;BME280;5025;48.890;9.278;2023-03-21T02:16:01;98944.41;;;10.20;72.18
9969;BME280;5025;48.890;9.278;2023-03-21T02:18:49;98946.53;;;10.18;72.17
9969;BME280;5025;48.890;9.278;2023-03-21T02:21:36;98935.31;;;10.14;72.12
9969;BME280;5025;48.890;9.278;2023-03-21T02:27:12;98935.16;;;10.09;72.20
9969;BME280;5025;48.890;9.278;2023-03-21T02:40:29;98930.28;;;9.99;72.07
9969;BME280;5025;48.890;9.278;2023-03-21T02:43:12;98936.72;;;9.98;72.06
9969;BME280;5025;48.890;9.278;2023-03-21T02:45:53;98935.91;;;9.98;72.04
9969;BME280;5025;48.890;9.278;2023-03-21T02:48:25;98923.44;;;9.97;72.25
9969;BME280;5025;48.890;9.278;2023-03-21T02:50:56;98930.94;;;9.95;72.06
9969;BME280;5025;48.890;9.278;2023-03-21T02:53:24;98929.28;;;9.94;72.13
9969;BME280;5025;48.890;9.278;2023-03-21T02:55:53;98934.69;;;9.94;72.16
9969;BME280;5025;48.890;9.278;2023-03-21T02:58:22;98923.91;;;9.94;72.23
9969;BME280;5025;48.890;9.278;2023-03-21T03:00:48;98923.91;;;9.94;72.08
9969;BME280;5025;48.890;9.278;2023-03-21T03:03:14;98920.16;;;9.95;71.95
9969;BME280;5025;48.890;9.278;2023-03-21T03:05:52;98917.69;;;9.93;72.40
9969;BME280;5025;48.890;9.278;2023-03-21T03:11:03;98911.66;;;9.91;72.03
9969;BME280;5025;48.890;9.278;2023-03-21T03:14:03;98918.16;;;9.83;72.19
9969;BME280;5025;48.890;9.278;2023-03-21T03:17:02;98911.56;;;9.79;72.63
9969;BME280;5025;48.890;9.278;2023-03-21T03:19:35;98918.59;;;9.80;72.53
9969;BME280;5025;48.890;9.278;2023-03-21T03:22:12;98914.28;;;9.79;72.50
9969;BME280;5025;48.890;9.278;2023-03-21T03:24:57;98919.22;;;9.82;72.41
9969;BME280;5025;48.890;9.278;2023-03-21T03:27:30;98917.78;;;9.80;72.53
9969;BME280;5025;48.890;9.278;2023-03-21T03:29:59;98908.66;;;9.81;72.25
9969;BME280;5025;48.890;9.278;2023-03-21T03:34:58;98911.13;;;9.82;72.18
9969;BME280;5025;48.890;9.278;2023-03-21T03:37:26;98909.47;;;9.81;72.38
9969;BME280;5025;48.890;9.278;2023-03-21T03:40:05;98913.00;;;9.82;72.38
9969;BME280;5025;48.890;9.278;2023-03-21T03:42:40;98900.34;;;9.82;72.50
9969;BME280;5025;48.890;9.278;2023-03-21T03:45:08;98914.88;;;9.81;72.33
9969;BME280;5025;48.890;9.278;2023-03-21T03:47:41;98900.78;;;9.79;72.25
9969;BME280;5025;48.890;9.278;2023-03-21T03:50:26;98904.53;;;9.78;72.39
9969;BME280;5025;48.890;9.278;2023-03-21T03:52:58;98904.75;;;9.77;72.55
9969;BME280;5025;48.890;9.278;2023-03-21T03:55:26;98906.63;;;9.76;72.66
9969;BME280;5025;48.890;9.278;2023-03-21T03:57:58;98904.38;;;9.73;72.45
9969;BME280;5025;48.890;9.278;2023-03-21T04:00:24;98897.53;;;9.71;72.44
9969;BME280;5025;48.890;9.278;2023-03-21T04:02:51;98908.53;;;9.69;72.61
9969;BME280;5025;48.890;9.278;2023-03-21T04:05:16;98902.94;;;9.71;72.55
9969;BME280;5025;48.890;9.278;2023-03-21T04:07:45;98908.09;;;9.72;72.57
9969;BME280;5025;48.890;9.278;2023-03-21T04:10:12;98906.22;;;9.73;72.69
9969;BME280;5025;48.890;9.278;2023-03-21T04:12:38;98903.31;;;9.74;72.63
9969;BME280;5025;48.890;9.278;2023-03-21T04:15:03;98907.88;;;9.74;72.58
9969;BME280;5025;48.890;9.278;2023-03-21T04:17:29;98905.41;;;9.72;72.50
9969;BME280;5025;48.890;9.278;2023-03-21T04:19:57;98903.75;;;9.71;72.54
9969;BME280;5025;48.890;9.278;2023-03-21T04:22:22;98905.84;;;9.69;72.57
9969;BME280;5025;48.890;9.278;2023-03-21T04:24:48;98899.22;;;9.65;72.51
9969;BME280;5025;48.890;9.278;2023-03-21T04:27:13;98899.66;;;9.62;72.64
9969;BME280;5025;48.890;9.278;2023-03-21T04:29:39;98899.06;;;9.60;72.58
9969;BME280;5025;48.890;9.278;2023-03-21T04:32:05;98900.09;;;9.59;72.66
9969;BME280;5025;48.890;9.278;2023-03-21T04:34:40;98896.81;;;9.57;72.81
9969;BME280;5025;48.890;9.278;2023-03-21T04:37:06;98900.53;;;9.56;72.90
9969;BME280;5025;48.890;9.278;2023-03-21T04:39:35;98893.31;;;9.56;72.99
9969;BME280;5025;48.890;9.278;2023-03-21T04:42:00;98890.59;;;9.56;73.05
9969;BME280;5025;48.890;9.278;2023-03-21T04:44:25;98895.78;;;9.58;72.77
9969;BME280;5025;48.890;9.278;2023-03-21T04:46:51;98887.47;;;9.59;72.93
9969;BME280;5025;48.890;9.278;2023-03-21T04:49:16;98890.16;;;9.59;72.72
9969;BME280;5025;48.890;9.278;2023-03-21T04:51:43;98880.63;;;9.57;72.88
9969;BME280;5025;48.890;9.278;2023-03-21T04:54:09;98884.59;;;9.54;73.04
9969;BME280;5025;48.890;9.278;2023-03-21T04:56:34;98881.88;;;9.54;72.89
9969;BME280;5025;48.890;9.278;2023-03-21T04:59:09;98884.81;;;9.52;73.03
9969;BME280;5025;48.890;9.278;2023-03-21T05:01:34;98881.72;;;9.49;73.30
9969;BME280;5025;48.890;9.278;2023-03-21T05:04:01;98886.09;;;9.50;72.92
9969;BME280;5025;48.890;9.278;2023-03-21T05:06:26;98883.00;;;9.46;73.00
9969;BME280;5025;48.890;9.278;2023-03-21T05:08:56;98889.44;;;9.45;73.20
9969;BME280;5025;48.890;9.278;2023-03-21T05:11:25;98880.50;;;9.45;73.30
9969;BME280;5025;48.890;9.278;2023-03-21T05:13:51;98883.44;;;9.43;73.43
9969;BME280;5025;48.890;9.278;2023-03-21T05:16:16;98889.66;;;9.44;73.44
9969;BME280;5025;48.890;9.278;2023-03-21T05:18:42;98887.78;;;9.44;73.45
9969;BME280;5025;48.890;9.278;2023-03-21T05:21:07;98884.06;;;9.45;73.29
9969;BME280;5025;48.890;9.278;2023-03-21T05:23:35;98883.22;;;9.45;73.52
9969;BME280;5025;48.890;9.278;2023-03-21T05:26:06;98891.69;;;9.48;73.62
9969;BME280;5025;48.890;9.278;2023-03-21T05:28:32;98890.03;;;9.47;73.40
9969;BME280;5025;48.890;9.278;2023-03-21T05:31:00;98893.78;;;9.46;73.67
9969;BME280;5025;48.890;9.278;2023-03-21T05:33:25;98895.88;;;9.44;73.79
9969;BME280;5025;48.890;9.278;2023-03-21T05:35:51;98892.56;;;9.42;73.64
9969;BME280;5025;48.890;9.278;2023-03-21T05:38:16;98900.66;;;9.42;73.91
9969;BME280;5025;48.890;9.278;2023-03-21T05:40:45;98898.34;;;9.46;73.67
9969;BME280;5025;48.890;9.278;2023-03-21T05:43:11;98898.56;;;9.44;73.76
9969;BME280;5025;48.890;9.278;2023-03-21T05:45:36;98896.91;;;9.43;73.75
9969;BME280;5025;48.890;9.278;2023-03-21T05:48:02;98895.06;;;9.44;73.73
9969;BME280;5025;48.890;9.278;2023-03-21T05:50:27;98906.06;;;9.42;73.97
9969;BME280;5025;48.890;9.278;2023-03-21T05:52:53;98897.13;;;9.42;74.05
9969;BME280;5025;48.890;9.278;2023-03-21T05:55:19;98901.69;;;9.41;73.96
9969;BME280;5025;48.890;9.278;2023-03-21T05:57:44;98900.66;;;9.42;73.89
9969;BME280;5025;48.890;9.278;2023-03-21T06:00:10;98901.09;;;9.39;74.07
9969;BME280;5025;48.890;9.278;2023-03-21T06:02:36;98908.13;;;9.40;74.09
9969;BME280;5025;48.890;9.278;2023-03-21T06:05:02;98900.47;;;9.37;74.18
9969;BME280;5025;48.890;9.278;2023-03-21T06:07:28;98904.81;;;9.38;74.20
9969;BME280;5025;48.890;9.278;2023-03-21T06:09:53;98899.81;;;9.42;74.12
9969;BME280;5025;48.890;9.278;2023-03-21T06:12:18;98902.28;;;9.43;74.15
9969;BME280;5025;48.890;9.278;2023-03-21T06:14:43;98902.91;;;9.45;74.15
9969;BME280;5025;48.890;9.278;2023-03-21T06:17:09;98898.13;;;9.47;73.99
9969;BME280;5025;48.890;9.278;2023-03-21T06:19:34;98891.06;;;9.46;74.39
9969;BME280;5025;48.890;9.278;2023-03-21T06:22:00;98900.81;;;9.47;74.15
9969;BME280;5025;48.890;9.278;2023-03-21T06:24:25;98899.78;;;9.48;74.46
9969;BME280;5025;48.890;9.278;2023-03-21T06:26:51;98907.69;;;9.43;74.29
9969;BME280;5025;48.890;9.278;2023-03-21T06:29:16;98906.06;;;9.42;74.42
9969;BME280;5025;48.890;9.278;2023-03-21T06:31:41;98906.06;;;9.42;74.37
9969;BME280;5025;48.890;9.278;2023-03-21T06:34:07;98904.38;;;9.41;74.53
9969;BME280;5025;48.890;9.278;2023-03-21T06:36:34;98903.97;;;9.44;74.32
9969;BME280;5025;48.890;9.278;2023-03-21T06:38:59;98900.44;;;9.44;74.12
9969;BME280;5025;48.890;9.278;2023-03-21T06:41:25;98911.81;;;9.46;74.33
9969;BME280;5025;48.890;9.278;2023-03-21T06:43:50;98908.09;;;9.47;74.18
9969;BME280;5025;48.890;9.278;2023-03-21T06:46:15;98908.91;;;9.47;74.38
9969;BME280;5025;48.890;9.278;2023-03-21T06:48:41;98903.91;;;9.51;74.36
9969;BME280;5025;48.890;9.278;2023-03-21T06:51:10;98908.03;;;9.54;74.31
9969;BME280;5025;48.890;9.278;2023-03-21T06:53:36;98905.94;;;9.56;74.34
9969;BME280;5025;48.890;9.278;2023-03-21T06:56:02;98903.25;;;9.56;73.99
9969;BME280;5025;48.890;9.278;2023-03-21T06:58:27;98902.00;;;9.58;74.33
9969;BME280;5025;48.890;9.278;2023-03-21T07:00:53;98905.91;;;9.62;74.04
9969;BME280;5025;48.890;9.278;2023-03-21T07:03:18;98891.34;;;9.63;74.08
9969;BME280;5025;48.890;9.278;2023-03-21T07:05:43;98899.84;;;9.67;74.05
9969;BME280;5025;48.890;9.278;2023-03-21T07:08:09;98892.38;;;9.69;74.08
9969;BME280;5025;48.890;9.278;2023-03-21T07:10:43;98903.53;;;9.73;73.93
9969;BME280;5025;48.890;9.278;2023-03-21T07:13:10;98901.66;;;9.73;73.82
9969;BME280;5025;48.890;9.278;2023-03-21T07:15:36;98899.56;;;9.75;73.86
9969;BME280;5025;48.890;9.278;2023-03-21T07:18:03;98903.94;;;9.76;73.73
9969;BME280;5025;48.890;9.278;2023-03-21T07:20:29;98897.03;;;9.80;73.56
9969;BME280;5025;48.890;9.278;2023-03-21T07:22:55;98893.28;;;9.81;73.50
9969;BME280;5025;48.890;9.278;2023-03-21T07:25:21;98892.63;;;9.86;73.22
9969;BME280;5025;48.890;9.278;2023-03-21T07:27:46;98894.88;;;9.89;73.14
9969;BME280;5025;48.890;9.278;2023-03-21T07:30:12;98896.53;;;9.90;72.95
9969;BME280;5025;48.890;9.278;2023-03-21T07:32:38;98901.28;;;9.95;73.03
9969;BME280;5025;48.890;9.278;2023-03-21T07:35:05;98888.38;;;9.97;73.03
9969;BME280;5025;48.890;9.278;2023-03-21T07:37:31;98896.03;;;10.00;72.67
9969;BME280;5025;48.890;9.278;2023-03-21T07:39:56;98903.91;;;10.01;72.46
9969;BME280;5025;48.890;9.278;2023-03-21T07:42:21;98895.13;;;10.06;72.37
9969;BME280;5025;48.890;9.278;2023-03-21T07:44:46;98905.25;;;10.11;72.16
9969;BME280;5025;48.890;9.278;2023-03-21T07:47:12;98894.84;;;10.14;72.08
9969;BME280;5025;48.890;9.278;2023-03-21T07:49:37;98898.31;;;10.21;71.81
9969;BME280;5025;48.890;9.278;2023-03-21T07:52:03;98892.47;;;10.25;71.74
9969;BME280;5025;48.890;9.278;2023-03-21T07:54:29;98896.97;;;10.31;71.63
9969;BME280;5025;48.890;9.278;2023-03-21T07:56:55;98896.56;;;10.34;71.68
9969;BME280;5025;48.890;9.278;2023-03-21T07:59:20;98894.44;;;10.36;71.45
9969;BME280;5025;48.890;9.278;2023-03-21T08:01:46;98897.31;;;10.41;71.34
9969;BME280;5025;48.890;9.278;2023-03-21T08:04:13;98904.75;;;10.46;71.10
9969;BME280;5025;48.890;9.278;2023-03-21T08:06:39;98891.59;;;10.49;70.87
9969;BME280;5025;48.890;9.278;2023-03-21T08:09:04;98905.91;;;10.50;70.79
9969;BME280;5025;48.890;9.278;2023-03-21T08:11:30;98899.25;;;10.52;70.46
9969;BME280;5025;48.890;9.278;2023-03-21T08:13:56;98893.41;;;10.55;70.32
9969;BME280;5025;48.890;9.278;2023-03-21T08:16:21;98888.13;;;10.61;70.01
9969;BME280;5025;48.890;9.278;2023-03-21T08:18:47;98891.44;;;10.63;69.86
9969;BME280;5025;48.890;9.278;2023-03-21T08:21:12;98898.03;;;10.67;69.60
9969;BME280;5025;48.890;9.278;2023-03-21T08:23:37;98894.88;;;10.70;69.74
9969;BME280;5025;48.890;9.278;2023-03-21T08:26:03;98893.75;;;10.77;69.20
9969;BME280;5025;48.890;9.278;2023-03-21T08:28:28;98889.91;;;10.85;69.35
9969;BME280;5025;48.890;9.278;2023-03-21T08:30:53;98896.50;;;10.89;69.15
9969;BME280;5025;48.890;9.278;2023-03-21T08:33:19;98881.69;;;10.92;69.11
9969;BME280;5025;48.890;9.278;2023-03-21T08:35:46;98882.91;;;10.96;68.95
9969;BME280;5025;48.890;9.278;2023-03-21T08:38:11;98873.06;;;11.02;68.76
9969;BME280;5025;48.890;9.278;2023-03-21T08:40:37;98879.19;;;11.09;68.53
9969;BME280;5025;48.890;9.278;2023-03-21T08:43:02;98882.16;;;11.19;68.24
9969;BME280;5025;48.890;9.278;2023-03-21T08:45:28;98878.78;;;11.24;68.04
9969;BME280;5025;48.890;9.278;2023-03-21T08:47:54;98869.97;;;11.28;67.83
9969;BME280;5025;48.890;9.278;2023-03-21T08:50:22;98869.84;;;11.35;67.68
9969;BME280;5025;48.890;9.278;2023-03-21T08:52:48;98863.91;;;11.45;67.32
9969;BME280;5025;48.890;9.278;2023-03-21T08:55:15;98862.50;;;11.54;67.00
9969;BME280;5025;48.890;9.278;2023-03-21T08:57:41;98853.09;;;11.69;66.89
9969;BME280;5025;48.890;9.278;2023-03-21T09:00:09;98860.78;;;11.83;66.32
9969;BME280;5025;48.890;9.278;2023-03-21T09:02:42;98855.22;;;11.90;66.15
9969;BME280;5025;48.890;9.278;2023-03-21T09:05:09;98858.06;;;11.95;65.96
9969;BME280;5025;48.890;9.278;2023-03-21T09:07:36;98857.59;;;11.98;65.57
9969;BME280;5025;48.890;9.278;2023-03-21T09:10:04;98841.47;;;11.92;64.29
9969;BME280;5025;48.890;9.278;2023-03-21T09:12:30;98839.94;;;11.84;62.94
9969;BME280;5025;48.890;9.278;2023-03-21T09:14:55;98851.72;;;12.01;62.83
9969;BME280;5025;48.890;9.278;2023-03-21T09:17:20;98847.34;;;12.12;62.33
9969;BME280;5025;48.890;9.278;2023-03-21T09:19:46;98852.75;;;12.24;61.99
9969;BME280;5025;48.890;9.278;2023-03-21T09:22:15;98860.59;;;12.37;61.53
9969;BME280;5025;48.890;9.278;2023-03-21T09:24:42;98852.22;;;12.51;61.31
9969;BME280;5025;48.890;9.278;2023-03-21T09:27:10;98855.00;;;12.68;60.89
9969;BME280;5025;48.890;9.278;2023-03-21T09:29:35;98856.78;;;12.62;58.11
9969;BME280;5025;48.890;9.278;2023-03-21T09:32:01;98853.72;;;12.70;58.31
9969;BME280;5025;48.890;9.278;2023-03-21T09:34:28;98845.75;;;12.81;58.29
9969;BME280;5025;48.890;9.278;2023-03-21T09:36:53;98847.03;;;12.90;58.38
9969;BME280;5025;48.890;9.278;2023-03-21T09:39:21;98844.75;;;12.99;58.12
9969;BME280;5025;48.890;9.278;2023-03-21T09:42:00;98849.28;;;13.10;57.71
9969;BME280;5025;48.890;9.278;2023-03-21T09:47:16;98843.97;;;13.15;53.62
9969;BME280;5025;48.890;9.278;2023-03-21T09:49:49;98841.50;;;13.14;53.27
9969;BME280;5025;48.890;9.278;2023-03-21T09:52:31;98845.28;;;13.13;52.34
9969;BME280;5025;48.890;9.278;2023-03-21T09:54:58;98839.72;;;13.36;52.64
9969;BME280;5025;48.890;9.278;2023-03-21T09:57:37;98841.28;;;13.49;52.63
9969;BME280;5025;48.890;9.278;2023-03-21T10:00:09;98840.91;;;13.57;52.65
9969;BME280;5025;48.890;9.278;2023-03-21T10:02:45;98841.88;;;13.68;52.22
9969;BME280;5025;48.890;9.278;2023-03-21T10:05:19;98838.00;;;13.64;49.38
9969;BME280;5025;48.890;9.278;2023-03-21T10:07:53;98839.00;;;13.58;49.03
9969;BME280;5025;48.890;9.278;2023-03-21T10:10:25;98829.06;;;13.63;48.92
9969;BME280;5025;48.890;9.278;2023-03-21T10:12:53;98825.97;;;13.77;48.98
9969;BME280;5025;48.890;9.278;2023-03-21T10:15:21;98825.25;;;13.81;49.05
9969;BME280;5025;48.890;9.278;2023-03-21T10:17:57;98821.03;;;13.91;48.98
9969;BME280;5025;48.890;9.278;2023-03-21T10:20:33;98822.25;;;14.00;49.10
9969;BME280;5025;48.890;9.278;2023-03-21T10:23:02;98811.88;;;13.97;49.19
9969;BME280;5025;48.890;9.278;2023-03-21T10:25:35;98811.25;;;13.90;48.62
9969;BME280;5025;48.890;9.278;2023-03-21T10:28:04;98799.72;;;13.99;48.82
9969;BME280;5025;48.890;9.278;2023-03-21T10:30:35;98811.31;;;13.95;48.05
9969;BME280;5025;48.890;9.278;2023-03-21T10:33:03;98805.50;;;13.86;47.94
9969;BME280;5025;48.890;9.278;2023-03-21T10:35:34;98803.69;;;13.92;47.61
9969;BME280;5025;48.890;9.278;2023-03-21T10:38:02;98796.25;;;14.04;47.91
9969;BME280;5025;48.890;9.278;2023-03-21T10:40:27;98804.03;;;14.18;47.74
9969;BME280;5025;48.890;9.278;2023-03-21T10:42:55;98793.38;;;14.33;47.61
9969;BME280;5025;48.890;9.278;2023-03-21T10:45:21;98791.34;;;14.45;47.34
9969;BME280;5025;48.890;9.278;2023-03-21T10:47:48;98791.25;;;14.40;46.97
9969;BME280;5025;48.890;9.278;2023-03-21T10:50:16;98791.72;;;14.32;45.48
9969;BME280;5025;48.890;9.278;2023-03-21T10:52:48;98783.44;;;14.22;46.42
9969;BME280;5025;48.890;9.278;2023-03-21T10:55:24;98788.78;;;14.39;46.78
9969;BME280;5025;48.890;9.278;2023-03-21T10:57:56;98790.84;;;14.48;47.27
9969;BME280;5025;48.890;9.278;2023-03-21T11:00:27;98787.53;;;14.46;46.54
9969;BME280;5025;48.890;9.278;2023-03-21T11:02:54;98785.50;;;14.59;46.75
9969;BME280;5025;48.890;9.278;2023-03-21T11:05:39;98788.28;;;14.64;46.50
9969;BME280;5025;48.890;9.278;2023-03-21T11:08:10;98790.50;;;14.45;45.35
9969;BME280;5025;48.890;9.278;2023-03-21T11:10:49;98789.00;;;14.32;45.86
9969;BME280;5025;48.890;9.278;2023-03-21T11:13:23;98783.25;;;14.50;46.04
9969;BME280;5025;48.890;9.278;2023-03-21T11:15:55;98785.81;;;14.62;45.84
9969;BME280;5025;48.890;9.278;2023-03-21T11:18:26;98781.53;;;14.66;45.85
9969;BME280;5025;48.890;9.278;2023-03-21T11:20:57;98779.25;;;14.58;46.08
9969;BME280;5025;48.890;9.278;2023-03-21T11:23:29;98777.50;;;14.47;45.49
9969;BME280;5025;48.890;9.278;2023-03-21T11:25:57;98783.34;;;14.61;45.58
9969;BME280;5025;48.890;9.278;2023-03-21T11:28:26;98784.63;;;14.75;45.57
9969;BME280;5025;48.890;9.278;2023-03-21T11:30:59;98773.63;;;14.65;45.18
9969;BME280;5025;48.890;9.278;2023-03-21T11:33:27;98770.97;;;14.70;45.34
9969;BME280;5025;48.890;9.278;2023-03-21T11:36:04;98770.34;;;14.63;44.95
9969;BME280;5025;48.890;9.278;2023-03-21T11:38:35;98763.28;;;14.62;45.12
9969;BME280;5025;48.890;9.278;2023-03-21T11:41:02;98763.91;;;14.69;45.13
9969;BME280;5025;48.890;9.278;2023-03-21T11:43:31;98759.69;;;14.83;45.22
9969;BME280;5025;48.890;9.278;2023-03-21T11:46:08;98756.81;;;14.95;45.32
9969;BME280;5025;48.890;9.278;2023-03-21T11:48:42;98752.41;;;14.89;45.66
9969;BME280;5025;48.890;9.278;2023-03-21T11:54:04;98747.47;;;14.86;45.67
9969;BME280;5025;48.890;9.278;2023-03-21T11:56:33;98738.28;;;14.92;45.49
9969;BME280;5025;48.890;9.278;2023-03-21T12:02:04;98734.34;;;15.10;46.21
9969;BME280;5025;48.890;9.278;2023-03-21T12:09:54;98717.63;;;15.29;46.93
9969;BME280;5025;48.890;9.278;2023-03-21T12:12:37;98717.38;;;15.30;47.07
9969;BME280;5025;48.890;9.278;2023-03-21T12:15:35;98708.38;;;15.30;47.36
9969;BME280;5025;48.890;9.278;2023-03-21T12:21:07;98704.50;;;15.20;47.65
9969;BME280;5025;48.890;9.278;2023-03-21T12:23:53;98699.59;;;15.17;47.78
9969;BME280;5025;48.890;9.278;2023-03-21T12:26:23;98696.63;;;15.19;47.78
9969;BME280;5025;48.890;9.278;2023-03-21T12:29:16;98692.81;;;15.20;47.79
9969;BME280;5025;48.890;9.278;2023-03-21T12:31:59;98692.84;;;15.25;48.10
9969;BME280;5025;48.890;9.278;2023-03-21T12:35:02;98693.72;;;15.31;48.00
9969;BME280;5025;48.890;9.278;2023-03-21T12:37:34;98686.09;;;15.33;48.06
9969;BME280;5025;48.890;9.278;2023-03-21T12:43:39;98685.31;;;15.37;48.54
9969;BME280;5025;48.890;9.278;2023-03-21T12:49:19;98674.97;;;15.39;48.62
9969;BME280;5025;48.890;9.278;2023-03-21T12:51:51;98670.38;;;15.40;48.65
9969;BME280;5025;48.890;9.278;2023-03-21T12:54:32;98675.28;;;15.43;48.71
9969;BME280;5025;48.890;9.278;2023-03-21T12:57:08;98670.41;;;15.45;48.64
9969;BME280;5025;48.890;9.278;2023-03-21T12:59:54;98675.84;;;15.50;48.72
9969;BME280;5025;48.890;9.278;2023-03-21T13:02:32;98667.75;;;15.55;48.58
9969;BME280;5025;48.890;9.278;2023-03-21T13:07:57;98663.44;;;15.65;48.67
9969;BME280;5025;48.890;9.278;2023-03-21T13:10:23;98660.72;;;15.65;48.42
9969;BME280;5025;48.890;9.278;2023-03-21T13:15:46;98656.94;;;15.76;48.17
9969;BME280;5025;48.890;9.278;2023-03-21T13:24:25;98649.66;;;15.92;47.92
9969;BME280;5025;48.890;9.278;2023-03-21T13:27:03;98644.75;;;15.94;47.99
9969;BME280;5025;48.890;9.278;2023-03-21T13:29:44;98653.22;;;15.98;48.03
9969;BME280;5025;48.890;9.278;2023-03-21T13:32:33;98647.00;;;16.02;47.86
9969;BME280;5025;48.890;9.278;2023-03-21T13:35:01;98645.06;;;16.03;47.94
9969;BME280;5025;48.890;9.278;2023-03-21T13:37:31;98643.41;;;16.02;47.80
9969;BME280;5025;48.890;9.278;2023-03-21T13:40:04;98637.44;;;16.05;47.85
9969;BME280;5025;48.890;9.278;2023-03-21T13:42:43;98637.19;;;16.06;47.77
9969;BME280;5025;48.890;9.278;2023-03-21T13:45:21;98627.38;;;16.05;47.69
9969;BME280;5025;48.890;9.278;2023-03-21T13:47:53;98632.00;;;16.05;47.86
9969;BME280;5025;48.890;9.278;2023-03-21T13:55:35;98628.41;;;15.89;46.87
9969;BME280;5025;48.890;9.278;2023-03-21T13:58:21;98621.81;;;15.74;46.31
9969;BME280;5025;48.890;9.278;2023-03-21T14:03:29;98623.50;;;15.81;46.59
9969;BME280;5025;48.890;9.278;2023-03-21T14:05:58;98628.13;;;15.80;46.58
9969;BME280;5025;48.890;9.278;2023-03-21T14:08:24;98625.94;;;15.82;46.78
9969;BME280;5025;48.890;9.278;2023-03-21T14:10:57;98614.78;;;15.84;46.95
9969;BME280;5025;48.890;9.278;2023-03-21T14:13:25;98608.50;;;15.83;46.93
9969;BME280;5025;48.890;9.278;2023-03-21T14:15:53;98608.25;;;15.85;46.88
9969;BME280;5025;48.890;9.278;2023-03-21T14:18:21;98605.25;;;15.86;46.97
9969;BME280;5025;48.890;9.278;2023-03-21T14:20:55;98600.06;;;15.85;46.97
9969;BME280;5025;48.890;9.278;2023-03-21T14:23:21;98600.66;;;15.87;47.05
9969;BME280;5025;48.890;9.278;2023-03-21T14:25:47;98602.25;;;15.88;47.16
9969;BME280;5025;48.890;9.278;2023-03-21T14:28:32;98593.28;;;15.87;47.18
9969;BME280;5025;48.890;9.278;2023-03-21T14:30:59;98590.81;;;15.86;47.27
9969;BME280;5025;48.890;9.278;2023-03-21T14:33:32;98593.28;;;15.87;47.32
9969;BME280;5025;48.890;9.278;2023-03-21T14:36:05;98596.00;;;15.87;47.37
9969;BME280;5025;48.890;9.278;2023-03-21T14:38:35;98595.47;;;15.90;47.51
9969;BME280;5025;48.890;9.278;2023-03-21T14:41:01;98592.75;;;15.95;47.39